sensor_id;sensor_type;location;lat;lon;timestamp;P1;durP1;ratioP1;P2;durP2;ratioP2
53533;SDS011;39421;53.204;6.568;2023-06-26T00:01:27;10.25;;;7.38;;
53533;SDS011;39421;53.204;6.568;2023-06-26T00:03:59;10.45;;;7.43;;
53533;SDS011;39421;53.204;6.568;2023-06-26T00:06:25;10.48;;;7.47;;
53533;SDS011;39421;53.204;6.568;2023-06-26T00:08:52;10.68;;;7.40;;
53533;SDS011;39421;53.204;6.568;2023-06-26T00:11:18;10.23;;;6.85;;
53533;SDS011;39421;53.204;6.568;2023-06-26T00:13:44;10.75;;;7.15;;
53533;SDS011;39421;53.204;6.568;2023-06-26T00:16:10;10.65;;;7.47;;
53533;SDS011;39421;53.204;6.568;2023-06-26T00:18:37;10.70;;;7.32;;
53533;SDS011;39421;53.204;6.568;2023-06-26T00:21:03;10.55;;;7.30;;
53533;SDS011;39421;53.204;6.568;2023-06-26T00:23:29;10.50;;;7.50;;
53533;SDS011;39421;53.204;6.568;2023-06-26T00:26:02;11.13;;;7.43;;
53533;SDS011;39421;53.204;6.568;2023-06-26T00:28:28;9.98;;;7.22;;
53533;SDS011;39421;53.204;6.568;2023-06-26T00:30:54;10.50;;;7.10;;
53533;SDS011;39421;53.204;6.568;2023-06-26T00:33:20;10.27;;;7.20;;
53533;SDS011;39421;53.204;6.568;2023-06-26T00:35:47;10.75;;;7.40;;
53533;SDS011;39421;53.204;6.568;2023-06-26T00:38:13;11.00;;;7.83;;
53533;SDS011;39421;53.204;6.568;2023-06-26T00:40:39;11.70;;;7.43;;
53533;SDS011;39421;53.204;6.568;2023-06-26T00:43:05;11.27;;;7.50;;
53533;SDS011;39421;53.204;6.568;2023-06-26T00:45:31;10.27;;;7.35;;
53533;SDS011;39421;53.204;6.568;2023-06-26T00:47:57;10.97;;;7.80;;
53533;SDS011;39421;53.204;6.568;2023-06-26T00:50:23;11.13;;;7.45;;
53533;SDS011;39421;53.204;6.568;2023-06-26T00:52:49;12.00;;;8.07;;
53533;SDS011;39421;53.204;6.568;2023-06-26T00:55:16;11.48;;;7.70;;
53533;SDS011;39421;53.204;6.568;2023-06-26T00:57:42;12.70;;;8.18;;
53533;SDS011;39421;53.204;6.568;2023-06-26T01:00:11;10.05;;;7.40;;
53533;SDS011;39421;53.204;6.568;2023-06-26T01:02:38;11.73;;;7.97;;
53533;SDS011;39421;53.204;6.568;2023-06-26T01:05:04;11.13;;;8.40;;
53533;SDS011;39421;53.204;6.568;2023-06-26T01:07:32;12.13;;;7.50;;
53533;SDS011;39421;53.204;6.568;2023-06-26T01:10:01;11.32;;;8.10;;
53533;SDS011;39421;53.204;6.568;2023-06-26T01:12:27;10.60;;;7.37;;
53533;SDS011;39421;53.204;6.568;2023-06-26T01:14:53;11.55;;;8.57;;
53533;SDS011;39421;53.204;6.568;2023-06-26T01:17:19;10.75;;;7.70;;
53533;SDS011;39421;53.204;6.568;2023-06-26T01:19:46;10.95;;;7.95;;
53533;SDS011;39421;53.204;6.568;2023-06-26T01:22:19;11.55;;;7.97;;
53533;SDS011;39421;53.204;6.568;2023-06-26T01:27:35;11.63;;;8.25;;
53533;SDS011;39421;53.204;6.568;2023-06-26T01:30:02;11.23;;;8.50;;
53533;SDS011;39421;53.204;6.568;2023-06-26T01:32:29;11.32;;;8.05;;
53533;SDS011;39421;53.204;6.568;2023-06-26T01:34:57;11.82;;;8.27;;
53533;SDS011;39421;53.204;6.568;2023-06-26T01:37:24;11.20;;;7.82;;
53533;SDS011;39421;53.204;6.568;2023-06-26T01:39:50;11.43;;;8.18;;
53533;SDS011;39421;53.204;6.568;2023-06-26T01:42:16;10.43;;;7.78;;
53533;SDS011;39421;53.204;6.568;2023-06-26T01:44:44;11.32;;;8.00;;
53533;SDS011;39421;53.204;6.568;2023-06-26T01:47:11;10.98;;;8.05;;
53533;SDS011;39421;53.204;6.568;2023-06-26T01:49:52;11.23;;;8.23;;
53533;SDS011;39421;53.204;6.568;2023-06-26T01:54:54;11.50;;;8.35;;
53533;SDS011;39421;53.204;6.568;2023-06-26T01:57:21;11.27;;;8.60;;
53533;SDS011;39421;53.204;6.568;2023-06-26T01:59:48;11.63;;;8.40;;
53533;SDS011;39421;53.204;6.568;2023-06-26T02:02:14;12.30;;;8.77;;
53533;SDS011;39421;53.204;6.568;2023-06-26T02:04:40;12.10;;;8.82;;
53533;SDS011;39421;53.204;6.568;2023-06-26T02:07:06;11.80;;;8.63;;
53533;SDS011;39421;53.204;6.568;2023-06-26T02:09:34;12.07;;;8.55;;
53533;SDS011;39421;53.204;6.568;2023-06-26T02:12:00;12.20;;;9.00;;
53533;SDS011;39421;53.204;6.568;2023-06-26T02:14:26;12.10;;;8.95;;
53533;SDS011;39421;53.204;6.568;2023-06-26T02:16:53;11.57;;;8.50;;
53533;SDS011;39421;53.204;6.568;2023-06-26T02:19:19;11.63;;;8.77;;
53533;SDS011;39421;53.204;6.568;2023-06-26T02:21:47;12.07;;;9.07;;
53533;SDS011;39421;53.204;6.568;2023-06-26T02:24:13;11.77;;;8.73;;
53533;SDS011;39421;53.204;6.568;2023-06-26T02:26:39;11.25;;;8.40;;
53533;SDS011;39421;53.204;6.568;2023-06-26T02:29:05;12.07;;;8.47;;
53533;SDS011;39421;53.204;6.568;2023-06-26T02:31:32;12.65;;;8.82;;
53533;SDS011;39421;53.204;6.568;2023-06-26T02:33:58;11.48;;;8.90;;
53533;SDS011;39421;53.204;6.568;2023-06-26T02:36:24;11.27;;;8.55;;
53533;SDS011;39421;53.204;6.568;2023-06-26T02:38:50;11.90;;;8.60;;
53533;SDS011;39421;53.204;6.568;2023-06-26T02:41:16;11.15;;;8.57;;
53533;SDS011;39421;53.204;6.568;2023-06-26T02:43:42;12.27;;;8.80;;
53533;SDS011;39421;53.204;6.568;2023-06-26T02:46:08;12.20;;;8.80;;
53533;SDS011;39421;53.204;6.568;2023-06-26T02:48:34;12.85;;;9.00;;
53533;SDS011;39421;53.204;6.568;2023-06-26T02:51:00;12.50;;;9.15;;
53533;SDS011;39421;53.204;6.568;2023-06-26T02:53:26;12.68;;;9.52;;
53533;SDS011;39421;53.204;6.568;2023-06-26T02:55:52;12.95;;;9.38;;
53533;SDS011;39421;53.204;6.568;2023-06-26T02:58:19;11.95;;;9.43;;
53533;SDS011;39421;53.204;6.568;2023-06-26T03:00:45;13.47;;;9.77;;
53533;SDS011;39421;53.204;6.568;2023-06-26T03:03:12;13.20;;;9.15;;
53533;SDS011;39421;53.204;6.568;2023-06-26T03:05:38;14.05;;;9.48;;
53533;SDS011;39421;53.204;6.568;2023-06-26T03:08:04;12.73;;;9.65;;
53533;SDS011;39421;53.204;6.568;2023-06-26T03:10:31;15.05;;;10.23;;
53533;SDS011;39421;53.204;6.568;2023-06-26T03:12:57;12.68;;;9.82;;
53533;SDS011;39421;53.204;6.568;2023-06-26T03:15:23;13.10;;;9.65;;
53533;SDS011;39421;53.204;6.568;2023-06-26T03:17:49;12.55;;;9.43;;
53533;SDS011;39421;53.204;6.568;2023-06-26T03:20:15;13.32;;;10.48;;
53533;SDS011;39421;53.204;6.568;2023-06-26T03:22:41;13.15;;;10.10;;
53533;SDS011;39421;53.204;6.568;2023-06-26T03:25:07;12.35;;;9.95;;
53533;SDS011;39421;53.204;6.568;2023-06-26T03:27:34;13.95;;;11.02;;
53533;SDS011;39421;53.204;6.568;2023-06-26T03:30:00;13.43;;;10.80;;
53533;SDS011;39421;53.204;6.568;2023-06-26T03:32:26;14.07;;;10.17;;
53533;SDS011;39421;53.204;6.568;2023-06-26T03:34:52;13.13;;;10.48;;
53533;SDS011;39421;53.204;6.568;2023-06-26T03:37:18;13.93;;;10.87;;
53533;SDS011;39421;53.204;6.568;2023-06-26T03:39:45;14.63;;;10.98;;
53533;SDS011;39421;53.204;6.568;2023-06-26T03:42:11;13.63;;;10.90;;
53533;SDS011;39421;53.204;6.568;2023-06-26T03:44:37;13.30;;;10.35;;
53533;SDS011;39421;53.204;6.568;2023-06-26T03:47:03;14.00;;;10.25;;
53533;SDS011;39421;53.204;6.568;2023-06-26T03:49:29;13.37;;;10.50;;
53533;SDS011;39421;53.204;6.568;2023-06-26T03:51:55;14.98;;;10.40;;
53533;SDS011;39421;53.204;6.568;2023-06-26T03:54:21;14.35;;;10.63;;
53533;SDS011;39421;53.204;6.568;2023-06-26T03:56:48;13.70;;;10.50;;
53533;SDS011;39421;53.204;6.568;2023-06-26T03:59:14;14.50;;;10.52;;
53533;SDS011;39421;53.204;6.568;2023-06-26T04:01:40;59.23;;;13.23;;
53533;SDS011;39421;53.204;6.568;2023-06-26T04:04:06;13.85;;;10.43;;
53533;SDS011;39421;53.204;6.568;2023-06-26T04:06:32;34.35;;;11.05;;
53533;SDS011;39421;53.204;6.568;2023-06-26T04:08:59;19.00;;;10.43;;
53533;SDS011;39421;53.204;6.568;2023-06-26T04:11:25;17.90;;;10.50;;
53533;SDS011;39421;53.204;6.568;2023-06-26T04:13:51;15.63;;;9.57;;
53533;SDS011;39421;53.204;6.568;2023-06-26T04:16:17;22.17;;;10.05;;
53533;SDS011;39421;53.204;6.568;2023-06-26T04:18:43;15.52;;;9.55;;
53533;SDS011;39421;53.204;6.568;2023-06-26T04:21:10;16.55;;;9.27;;
53533;SDS011;39421;53.204;6.568;2023-06-26T04:23:37;14.40;;;9.73;;
53533;SDS011;39421;53.204;6.568;2023-06-26T04:26:03;14.27;;;8.90;;
53533;SDS011;39421;53.204;6.568;2023-06-26T04:28:30;24.88;;;9.93;;
53533;SDS011;39421;53.204;6.568;2023-06-26T04:30:57;15.65;;;9.15;;
53533;SDS011;39421;53.204;6.568;2023-06-26T04:33:24;13.15;;;8.82;;
53533;SDS011;39421;53.204;6.568;2023-06-26T04:35:50;17.38;;;9.13;;
53533;SDS011;39421;53.204;6.568;2023-06-26T04:38:17;24.30;;;10.27;;
53533;SDS011;39421;53.204;6.568;2023-06-26T04:40:43;13.80;;;8.75;;
53533;SDS011;39421;53.204;6.568;2023-06-26T04:43:09;14.23;;;8.50;;
53533;SDS011;39421;53.204;6.568;2023-06-26T04:45:35;14.15;;;8.20;;
53533;SDS011;39421;53.204;6.568;2023-06-26T04:48:01;21.48;;;8.80;;
53533;SDS011;39421;53.204;6.568;2023-06-26T04:50:28;15.20;;;7.97;;
53533;SDS011;39421;53.204;6.568;2023-06-26T04:52:54;14.68;;;7.63;;
53533;SDS011;39421;53.204;6.568;2023-06-26T04:55:20;16.13;;;8.05;;
53533;SDS011;39421;53.204;6.568;2023-06-26T04:57:47;13.25;;;7.88;;
53533;SDS011;39421;53.204;6.568;2023-06-26T05:00:13;30.40;;;8.65;;
53533;SDS011;39421;53.204;6.568;2023-06-26T05:02:40;108.53;;;14.25;;
53533;SDS011;39421;53.204;6.568;2023-06-26T05:05:06;28.70;;;8.63;;
53533;SDS011;39421;53.204;6.568;2023-06-26T05:07:32;20.83;;;7.80;;
53533;SDS011;39421;53.204;6.568;2023-06-26T05:09:58;15.10;;;7.45;;
53533;SDS011;39421;53.204;6.568;2023-06-26T05:12:25;19.90;;;8.15;;
53533;SDS011;39421;53.204;6.568;2023-06-26T05:14:51;18.25;;;8.48;;
53533;SDS011;39421;53.204;6.568;2023-06-26T05:17:17;22.20;;;8.50;;
53533;SDS011;39421;53.204;6.568;2023-06-26T05:19:43;19.48;;;8.23;;
53533;SDS011;39421;53.204;6.568;2023-06-26T05:22:09;17.50;;;8.45;;
53533;SDS011;39421;53.204;6.568;2023-06-26T05:24:36;20.30;;;9.50;;
53533;SDS011;39421;53.204;6.568;2023-06-26T05:27:03;18.48;;;8.48;;
53533;SDS011;39421;53.204;6.568;2023-06-26T05:29:32;23.75;;;8.98;;
53533;SDS011;39421;53.204;6.568;2023-06-26T05:31:59;19.30;;;8.50;;
53533;SDS011;39421;53.204;6.568;2023-06-26T05:34:26;14.88;;;7.70;;
53533;SDS011;39421;53.204;6.568;2023-06-26T05:37:00;19.73;;;7.53;;
53533;SDS011;39421;53.204;6.568;2023-06-26T05:39:26;14.23;;;7.60;;
53533;SDS011;39421;53.204;6.568;2023-06-26T05:41:52;20.20;;;7.28;;
53533;SDS011;39421;53.204;6.568;2023-06-26T05:44:21;21.13;;;6.70;;
53533;SDS011;39421;53.204;6.568;2023-06-26T05:46:47;13.83;;;5.97;;
53533;SDS011;39421;53.204;6.568;2023-06-26T05:49:13;16.25;;;6.32;;
53533;SDS011;39421;53.204;6.568;2023-06-26T05:51:39;12.43;;;5.80;;
53533;SDS011;39421;53.204;6.568;2023-06-26T05:54:05;13.25;;;5.63;;
53533;SDS011;39421;53.204;6.568;2023-06-26T05:56:32;14.15;;;5.60;;
53533;SDS011;39421;53.204;6.568;2023-06-26T05:58:58;14.40;;;5.55;;
53533;SDS011;39421;53.204;6.568;2023-06-26T06:01:24;12.67;;;4.87;;
53533;SDS011;39421;53.204;6.568;2023-06-26T06:03:50;15.73;;;5.15;;
53533;SDS011;39421;53.204;6.568;2023-06-26T06:06:16;12.48;;;4.47;;
53533;SDS011;39421;53.204;6.568;2023-06-26T06:08:43;14.35;;;5.10;;
53533;SDS011;39421;53.204;6.568;2023-06-26T06:11:09;14.13;;;4.93;;
53533;SDS011;39421;53.204;6.568;2023-06-26T06:13:35;12.05;;;3.80;;
53533;SDS011;39421;53.204;6.568;2023-06-26T06:16:01;16.35;;;4.38;;
53533;SDS011;39421;53.204;6.568;2023-06-26T06:18:27;18.05;;;4.45;;
53533;SDS011;39421;53.204;6.568;2023-06-26T06:20:53;18.08;;;4.32;;
53533;SDS011;39421;53.204;6.568;2023-06-26T06:23:19;15.48;;;4.00;;
53533;SDS011;39421;53.204;6.568;2023-06-26T06:25:45;28.33;;;5.00;;
53533;SDS011;39421;53.204;6.568;2023-06-26T06:28:11;12.77;;;3.20;;
53533;SDS011;39421;53.204;6.568;2023-06-26T06:30:41;12.50;;;3.60;;
53533;SDS011;39421;53.204;6.568;2023-06-26T06:33:07;13.15;;;3.58;;
53533;SDS011;39421;53.204;6.568;2023-06-26T06:35:33;12.25;;;3.28;;
53533;SDS011;39421;53.204;6.568;2023-06-26T06:37:59;11.90;;;3.10;;
53533;SDS011;39421;53.204;6.568;2023-06-26T06:40:25;14.30;;;2.83;;
53533;SDS011;39421;53.204;6.568;2023-06-26T06:42:51;11.63;;;2.85;;
53533;SDS011;39421;53.204;6.568;2023-06-26T06:45:17;20.88;;;3.90;;
53533;SDS011;39421;53.204;6.568;2023-06-26T06:47:43;11.07;;;2.83;;
53533;SDS011;39421;53.204;6.568;2023-06-26T06:50:10;10.03;;;2.70;;
53533;SDS011;39421;53.204;6.568;2023-06-26T06:52:36;53.72;;;5.90;;
53533;SDS011;39421;53.204;6.568;2023-06-26T06:55:03;17.40;;;3.27;;
53533;SDS011;39421;53.204;6.568;2023-06-26T06:57:32;15.90;;;3.03;;
53533;SDS011;39421;53.204;6.568;2023-06-26T07:00:06;8.32;;;2.30;;
53533;SDS011;39421;53.204;6.568;2023-06-26T07:02:36;10.00;;;2.40;;
53533;SDS011;39421;53.204;6.568;2023-06-26T07:05:03;8.48;;;2.17;;
53533;SDS011;39421;53.204;6.568;2023-06-26T07:07:29;8.57;;;2.30;;
53533;SDS011;39421;53.204;6.568;2023-06-26T07:09:57;16.58;;;3.22;;
53533;SDS011;39421;53.204;6.568;2023-06-26T07:12:23;10.10;;;2.60;;
53533;SDS011;39421;53.204;6.568;2023-06-26T07:14:50;9.55;;;2.50;;
53533;SDS011;39421;53.204;6.568;2023-06-26T07:17:16;16.45;;;2.72;;
53533;SDS011;39421;53.204;6.568;2023-06-26T07:19:42;15.23;;;3.08;;
53533;SDS011;39421;53.204;6.568;2023-06-26T07:22:08;9.95;;;2.22;;
53533;SDS011;39421;53.204;6.568;2023-06-26T07:24:34;13.80;;;2.10;;
53533;SDS011;39421;53.204;6.568;2023-06-26T07:27:00;12.73;;;2.22;;
53533;SDS011;39421;53.204;6.568;2023-06-26T07:29:26;9.60;;;1.98;;
53533;SDS011;39421;53.204;6.568;2023-06-26T07:31:52;22.20;;;3.25;;
53533;SDS011;39421;53.204;6.568;2023-06-26T07:34:19;17.08;;;2.92;;
53533;SDS011;39421;53.204;6.568;2023-06-26T07:36:45;11.07;;;2.20;;
53533;SDS011;39421;53.204;6.568;2023-06-26T07:39:11;15.05;;;2.33;;
53533;SDS011;39421;53.204;6.568;2023-06-26T07:41:37;8.13;;;1.80;;
53533;SDS011;39421;53.204;6.568;2023-06-26T07:44:03;8.00;;;1.98;;
53533;SDS011;39421;53.204;6.568;2023-06-26T07:46:29;13.55;;;2.25;;
53533;SDS011;39421;53.204;6.568;2023-06-26T07:48:55;6.82;;;1.83;;
53533;SDS011;39421;53.204;6.568;2023-06-26T07:51:21;7.55;;;1.45;;
53533;SDS011;39421;53.204;6.568;2023-06-26T07:53:48;8.82;;;1.83;;
53533;SDS011;39421;53.204;6.568;2023-06-26T07:56:14;8.88;;;1.63;;
53533;SDS011;39421;53.204;6.568;2023-06-26T07:58:40;6.18;;;1.38;;
53533;SDS011;39421;53.204;6.568;2023-06-26T08:01:06;14.85;;;2.50;;
53533;SDS011;39421;53.204;6.568;2023-06-26T08:03:33;8.30;;;2.03;;
53533;SDS011;39421;53.204;6.568;2023-06-26T08:05:59;9.73;;;2.30;;
53533;SDS011;39421;53.204;6.568;2023-06-26T08:08:25;41.60;;;4.57;;
53533;SDS011;39421;53.204;6.568;2023-06-26T08:10:51;18.30;;;2.72;;
53533;SDS011;39421;53.204;6.568;2023-06-26T08:13:17;28.15;;;3.25;;
53533;SDS011;39421;53.204;6.568;2023-06-26T08:15:43;38.67;;;4.05;;
53533;SDS011;39421;53.204;6.568;2023-06-26T08:18:10;7.77;;;1.47;;
53533;SDS011;39421;53.204;6.568;2023-06-26T08:20:36;20.25;;;2.83;;
53533;SDS011;39421;53.204;6.568;2023-06-26T08:23:03;7.75;;;1.73;;
53533;SDS011;39421;53.204;6.568;2023-06-26T08:25:29;15.68;;;2.28;;
53533;SDS011;39421;53.204;6.568;2023-06-26T08:27:55;9.25;;;2.05;;
53533;SDS011;39421;53.204;6.568;2023-06-26T08:30:22;6.22;;;1.63;;
53533;SDS011;39421;53.204;6.568;2023-06-26T08:32:52;8.83;;;1.90;;
53533;SDS011;39421;53.204;6.568;2023-06-26T08:35:19;8.02;;;1.80;;
53533;SDS011;39421;53.204;6.568;2023-06-26T08:37:45;28.27;;;4.20;;
53533;SDS011;39421;53.204;6.568;2023-06-26T08:40:11;11.98;;;2.30;;
53533;SDS011;39421;53.204;6.568;2023-06-26T08:42:38;13.15;;;2.45;;
53533;SDS011;39421;53.204;6.568;2023-06-26T08:45:04;8.20;;;2.00;;
53533;SDS011;39421;53.204;6.568;2023-06-26T08:47:30;6.00;;;1.80;;
53533;SDS011;39421;53.204;6.568;2023-06-26T08:50:10;12.02;;;2.25;;
53533;SDS011;39421;53.204;6.568;2023-06-26T08:52:43;8.55;;;2.10;;
53533;SDS011;39421;53.204;6.568;2023-06-26T08:55:18;46.58;;;5.78;;
53533;SDS011;39421;53.204;6.568;2023-06-26T08:57:48;6.82;;;1.92;;
53533;SDS011;39421;53.204;6.568;2023-06-26T09:00:14;7.72;;;1.90;;
53533;SDS011;39421;53.204;6.568;2023-06-26T09:02:41;21.80;;;2.95;;
53533;SDS011;39421;53.204;6.568;2023-06-26T09:05:07;9.00;;;2.10;;
53533;SDS011;39421;53.204;6.568;2023-06-26T09:07:34;6.15;;;1.92;;
53533;SDS011;39421;53.204;6.568;2023-06-26T09:10:00;8.43;;;2.00;;
53533;SDS011;39421;53.204;6.568;2023-06-26T09:12:26;15.13;;;2.70;;
53533;SDS011;39421;53.204;6.568;2023-06-26T09:14:53;7.00;;;2.00;;
53533;SDS011;39421;53.204;6.568;2023-06-26T09:17:24;7.35;;;2.10;;
53533;SDS011;39421;53.204;6.568;2023-06-26T09:19:51;9.18;;;2.10;;
53533;SDS011;39421;53.204;6.568;2023-06-26T09:22:17;6.88;;;1.80;;
53533;SDS011;39421;53.204;6.568;2023-06-26T09:24:43;46.80;;;5.18;;
53533;SDS011;39421;53.204;6.568;2023-06-26T09:27:10;18.77;;;3.00;;
53533;SDS011;39421;53.204;6.568;2023-06-26T09:29:36;12.43;;;2.50;;
53533;SDS011;39421;53.204;6.568;2023-06-26T09:32:03;7.82;;;2.17;;
53533;SDS011;39421;53.204;6.568;2023-06-26T09:34:30;11.95;;;2.15;;
53533;SDS011;39421;53.204;6.568;2023-06-26T09:36:57;9.75;;;2.20;;
53533;SDS011;39421;53.204;6.568;2023-06-26T09:39:23;6.05;;;2.10;;
53533;SDS011;39421;53.204;6.568;2023-06-26T09:41:50;8.85;;;2.20;;
53533;SDS011;39421;53.204;6.568;2023-06-26T09:44:16;7.85;;;2.10;;
53533;SDS011;39421;53.204;6.568;2023-06-26T09:46:44;8.85;;;2.03;;
53533;SDS011;39421;53.204;6.568;2023-06-26T09:49:11;8.05;;;2.00;;
53533;SDS011;39421;53.204;6.568;2023-06-26T09:51:38;20.27;;;3.30;;
53533;SDS011;39421;53.204;6.568;2023-06-26T09:54:05;17.20;;;3.03;;
53533;SDS011;39421;53.204;6.568;2023-06-26T09:56:31;6.82;;;2.10;;
53533;SDS011;39421;53.204;6.568;2023-06-26T09:58:58;10.55;;;2.55;;
53533;SDS011;39421;53.204;6.568;2023-06-26T10:01:26;42.83;;;5.57;;
53533;SDS011;39421;53.204;6.568;2023-06-26T10:03:52;13.27;;;2.85;;
53533;SDS011;39421;53.204;6.568;2023-06-26T10:06:19;212.13;;;17.95;;
53533;SDS011;39421;53.204;6.568;2023-06-26T10:08:47;37.97;;;4.87;;
53533;SDS011;39421;53.204;6.568;2023-06-26T10:11:16;25.67;;;4.15;;
53533;SDS011;39421;53.204;6.568;2023-06-26T10:13:42;12.60;;;2.60;;
53533;SDS011;39421;53.204;6.568;2023-06-26T10:16:11;22.95;;;3.13;;
53533;SDS011;39421;53.204;6.568;2023-06-26T10:18:38;10.00;;;2.20;;
53533;SDS011;39421;53.204;6.568;2023-06-26T10:21:05;11.48;;;2.92;;
53533;SDS011;39421;53.204;6.568;2023-06-26T10:23:32;12.90;;;3.22;;
53533;SDS011;39421;53.204;6.568;2023-06-26T10:25:59;9.07;;;2.42;;
53533;SDS011;39421;53.204;6.568;2023-06-26T10:28:26;6.85;;;2.50;;
53533;SDS011;39421;53.204;6.568;2023-06-26T10:30:54;59.17;;;6.22;;
53533;SDS011;39421;53.204;6.568;2023-06-26T10:33:20;12.23;;;2.90;;
53533;SDS011;39421;53.204;6.568;2023-06-26T10:35:47;15.23;;;2.75;;
53533;SDS011;39421;53.204;6.568;2023-06-26T10:38:14;9.45;;;2.90;;
53533;SDS011;39421;53.204;6.568;2023-06-26T10:40:42;8.73;;;2.53;;
53533;SDS011;39421;53.204;6.568;2023-06-26T10:43:09;8.20;;;2.67;;
53533;SDS011;39421;53.204;6.568;2023-06-26T10:45:36;7.13;;;2.57;;
53533;SDS011;39421;53.204;6.568;2023-06-26T10:48:02;16.42;;;3.33;;
53533;SDS011;39421;53.204;6.568;2023-06-26T10:50:31;41.03;;;4.88;;
53533;SDS011;39421;53.204;6.568;2023-06-26T10:55:32;16.00;;;3.60;;
53533;SDS011;39421;53.204;6.568;2023-06-26T10:57:59;16.20;;;2.85;;
53533;SDS011;39421;53.204;6.568;2023-06-26T11:00:25;21.33;;;3.40;;
53533;SDS011;39421;53.204;6.568;2023-06-26T11:02:51;15.57;;;3.63;;
53533;SDS011;39421;53.204;6.568;2023-06-26T11:05:24;12.98;;;2.75;;
53533;SDS011;39421;53.204;6.568;2023-06-26T11:08:09;9.27;;;2.40;;
53533;SDS011;39421;53.204;6.568;2023-06-26T11:10:51;20.60;;;3.25;;
53533;SDS011;39421;53.204;6.568;2023-06-26T11:13:17;12.63;;;2.78;;
53533;SDS011;39421;53.204;6.568;2023-06-26T11:15:45;12.60;;;2.67;;
53533;SDS011;39421;53.204;6.568;2023-06-26T11:18:12;22.33;;;4.28;;
53533;SDS011;39421;53.204;6.568;2023-06-26T11:20:39;21.67;;;3.20;;
53533;SDS011;39421;53.204;6.568;2023-06-26T11:23:05;8.05;;;2.30;;
53533;SDS011;39421;53.204;6.568;2023-06-26T11:25:35;20.05;;;3.20;;
53533;SDS011;39421;53.204;6.568;2023-06-26T11:28:02;17.80;;;3.00;;
53533;SDS011;39421;53.204;6.568;2023-06-26T11:30:29;11.68;;;2.20;;
53533;SDS011;39421;53.204;6.568;2023-06-26T11:33:08;17.33;;;2.40;;
53533;SDS011;39421;53.204;6.568;2023-06-26T11:35:35;101.90;;;10.48;;
53533;SDS011;39421;53.204;6.568;2023-06-26T11:38:01;11.03;;;2.20;;
53533;SDS011;39421;53.204;6.568;2023-06-26T11:40:30;12.20;;;2.30;;
53533;SDS011;39421;53.204;6.568;2023-06-26T11:42:57;19.33;;;3.28;;
53533;SDS011;39421;53.204;6.568;2023-06-26T11:45:25;37.13;;;4.70;;
53533;SDS011;39421;53.204;6.568;2023-06-26T11:47:51;10.88;;;2.40;;
53533;SDS011;39421;53.204;6.568;2023-06-26T11:50:17;8.98;;;1.70;;
53533;SDS011;39421;53.204;6.568;2023-06-26T11:52:44;20.65;;;2.67;;
53533;SDS011;39421;53.204;6.568;2023-06-26T11:55:10;11.07;;;2.17;;
53533;SDS011;39421;53.204;6.568;2023-06-26T11:57:37;9.07;;;1.90;;
53533;SDS011;39421;53.204;6.568;2023-06-26T12:00:10;9.70;;;1.60;;
53533;SDS011;39421;53.204;6.568;2023-06-26T12:02:36;24.73;;;2.80;;
53533;SDS011;39421;53.204;6.568;2023-06-26T12:05:02;19.05;;;3.08;;
53533;SDS011;39421;53.204;6.568;2023-06-26T12:07:28;102.22;;;11.05;;
53533;SDS011;39421;53.204;6.568;2023-06-26T12:09:56;13.00;;;2.17;;
53533;SDS011;39421;53.204;6.568;2023-06-26T12:12:23;38.72;;;4.70;;
53533;SDS011;39421;53.204;6.568;2023-06-26T12:14:50;29.02;;;4.07;;
53533;SDS011;39421;53.204;6.568;2023-06-26T12:17:17;23.60;;;3.00;;
53533;SDS011;39421;53.204;6.568;2023-06-26T12:19:46;10.60;;;1.75;;
53533;SDS011;39421;53.204;6.568;2023-06-26T12:22:13;29.53;;;3.23;;
53533;SDS011;39421;53.204;6.568;2023-06-26T12:24:39;64.60;;;6.88;;
53533;SDS011;39421;53.204;6.568;2023-06-26T12:27:08;13.20;;;1.90;;
53533;SDS011;39421;53.204;6.568;2023-06-26T12:29:34;14.23;;;2.28;;
53533;SDS011;39421;53.204;6.568;2023-06-26T12:32:01;8.32;;;1.83;;
53533;SDS011;39421;53.204;6.568;2023-06-26T12:34:28;8.02;;;1.65;;
53533;SDS011;39421;53.204;6.568;2023-06-26T12:36:59;16.63;;;2.30;;
53533;SDS011;39421;53.204;6.568;2023-06-26T12:39:26;8.07;;;1.90;;
53533;SDS011;39421;53.204;6.568;2023-06-26T12:41:53;93.25;;;10.02;;
53533;SDS011;39421;53.204;6.568;2023-06-26T12:44:20;27.30;;;4.22;;
53533;SDS011;39421;53.204;6.568;2023-06-26T12:46:48;20.98;;;2.90;;
53533;SDS011;39421;53.204;6.568;2023-06-26T12:49:14;6.05;;;1.50;;
53533;SDS011;39421;53.204;6.568;2023-06-26T12:51:40;7.75;;;1.60;;
53533;SDS011;39421;53.204;6.568;2023-06-26T12:54:08;28.10;;;3.95;;
53533;SDS011;39421;53.204;6.568;2023-06-26T12:56:34;20.17;;;2.55;;
53533;SDS011;39421;53.204;6.568;2023-06-26T12:59:01;20.67;;;2.78;;
53533;SDS011;39421;53.204;6.568;2023-06-26T13:01:27;32.22;;;3.67;;
53533;SDS011;39421;53.204;6.568;2023-06-26T13:03:53;103.95;;;9.93;;
53533;SDS011;39421;53.204;6.568;2023-06-26T13:06:19;25.13;;;3.25;;
53533;SDS011;39421;53.204;6.568;2023-06-26T13:08:46;13.82;;;2.08;;
53533;SDS011;39421;53.204;6.568;2023-06-26T13:11:15;8.00;;;1.50;;
53533;SDS011;39421;53.204;6.568;2023-06-26T13:13:42;7.63;;;1.70;;
53533;SDS011;39421;53.204;6.568;2023-06-26T13:16:08;10.67;;;1.80;;
53533;SDS011;39421;53.204;6.568;2023-06-26T13:18:34;12.35;;;1.77;;
53533;SDS011;39421;53.204;6.568;2023-06-26T13:21:01;12.07;;;2.00;;
53533;SDS011;39421;53.204;6.568;2023-06-26T13:23:27;20.30;;;2.60;;
53533;SDS011;39421;53.204;6.568;2023-06-26T13:25:54;6.33;;;1.83;;
53533;SDS011;39421;53.204;6.568;2023-06-26T13:28:20;19.17;;;2.40;;
53533;SDS011;39421;53.204;6.568;2023-06-26T13:30:46;7.22;;;1.60;;
53533;SDS011;39421;53.204;6.568;2023-06-26T13:33:12;6.35;;;1.73;;
53533;SDS011;39421;53.204;6.568;2023-06-26T13:35:39;8.25;;;1.60;;
53533;SDS011;39421;53.204;6.568;2023-06-26T13:38:05;5.47;;;1.60;;
53533;SDS011;39421;53.204;6.568;2023-06-26T13:40:31;10.73;;;1.70;;
53533;SDS011;39421;53.204;6.568;2023-06-26T13:42:57;29.50;;;4.45;;
53533;SDS011;39421;53.204;6.568;2023-06-26T13:45:24;14.17;;;2.07;;
53533;SDS011;39421;53.204;6.568;2023-06-26T13:47:51;10.48;;;1.80;;
53533;SDS011;39421;53.204;6.568;2023-06-26T13:50:17;12.77;;;2.00;;
53533;SDS011;39421;53.204;6.568;2023-06-26T13:52:43;56.70;;;5.43;;
53533;SDS011;39421;53.204;6.568;2023-06-26T13:55:09;16.25;;;2.53;;
53533;SDS011;39421;53.204;6.568;2023-06-26T13:57:35;14.93;;;2.33;;
53533;SDS011;39421;53.204;6.568;2023-06-26T14:00:06;10.25;;;2.03;;
53533;SDS011;39421;53.204;6.568;2023-06-26T14:02:33;9.25;;;2.03;;
53533;SDS011;39421;53.204;6.568;2023-06-26T14:04:59;22.67;;;3.80;;
53533;SDS011;39421;53.204;6.568;2023-06-26T14:07:25;34.35;;;3.90;;
53533;SDS011;39421;53.204;6.568;2023-06-26T14:09:51;11.70;;;2.40;;
53533;SDS011;39421;53.204;6.568;2023-06-26T14:12:17;7.03;;;1.90;;
53533;SDS011;39421;53.204;6.568;2023-06-26T14:14:43;5.88;;;1.73;;
53533;SDS011;39421;53.204;6.568;2023-06-26T14:17:10;8.13;;;1.90;;
53533;SDS011;39421;53.204;6.568;2023-06-26T14:19:41;7.88;;;1.90;;
53533;SDS011;39421;53.204;6.568;2023-06-26T14:22:07;7.10;;;1.70;;
53533;SDS011;39421;53.204;6.568;2023-06-26T14:24:34;9.52;;;2.30;;
53533;SDS011;39421;53.204;6.568;2023-06-26T14:27:00;8.07;;;1.90;;
53533;SDS011;39421;53.204;6.568;2023-06-26T14:29:26;8.25;;;1.90;;
53533;SDS011;39421;53.204;6.568;2023-06-26T14:31:52;9.27;;;1.90;;
53533;SDS011;39421;53.204;6.568;2023-06-26T14:34:19;25.33;;;3.53;;
53533;SDS011;39421;53.204;6.568;2023-06-26T14:36:45;10.65;;;1.83;;
53533;SDS011;39421;53.204;6.568;2023-06-26T14:39:11;7.65;;;2.20;;
53533;SDS011;39421;53.204;6.568;2023-06-26T14:41:37;8.40;;;2.07;;